createdAt,value
2022-11-05T00:02:51.098Z,101433.44
2022-11-05T00:05:36.601Z,101453.31
2022-11-05T00:08:23.816Z,101452.47
2022-11-05T00:10:51.795Z,101458.91
2022-11-05T00:13:36.991Z,101457.28
2022-11-05T00:16:22.619Z,101464.53
2022-11-05T00:19:05.605Z,101473.66
2022-11-05T00:21:51.020Z,101468.25
2022-11-05T00:24:42.032Z,101463.91
2022-11-05T00:27:10.679Z,101471.19
2022-11-05T00:29:38.637Z,101476.78
2022-11-05T00:32:06.503Z,101477.00
2022-11-05T00:34:35.581Z,101475.13
2022-11-05T00:37:03.303Z,101481.56
2022-11-05T00:39:31.061Z,101481.78
2022-11-05T00:42:12.671Z,101476.63
2022-11-05T00:44:57.908Z,101490.09
2022-11-05T00:47:43.226Z,101491.13
2022-11-05T00:50:12.432Z,101501.09
2022-11-05T00:52:59.691Z,101494.88
2022-11-05T00:55:33.291Z,101507.53
2022-11-05T00:58:01.886Z,101510.44
2022-11-05T01:00:31.950Z,101508.78
2022-11-05T01:03:01.729Z,101518.72
2022-11-05T01:05:32.453Z,101517.69
2022-11-05T01:08:00.636Z,101514.38
2022-11-05T01:10:29.047Z,101509.66
2022-11-05T01:12:57.252Z,101519.16
2022-11-05T01:15:24.983Z,101520.00
2022-11-05T01:17:53.153Z,101518.56
2022-11-05T01:20:20.928Z,101529.34
2022-11-05T01:22:50.005Z,101535.53
2022-11-05T01:25:17.869Z,101539.50
2022-11-05T01:27:45.623Z,101544.06
2022-11-05T01:30:14.336Z,101544.31
2022-11-05T01:32:42.258Z,101540.38
2022-11-05T01:35:13.326Z,101541.00
2022-11-05T01:37:41.182Z,101549.09
2022-11-05T01:40:13.474Z,101556.34
2022-11-05T01:42:41.150Z,101552.81
2022-11-05T01:45:16.274Z,101550.13
2022-11-05T01:47:58.827Z,101547.66
2022-11-05T01:50:42.573Z,101552.22
2022-11-05T01:53:19.589Z,101551.16
2022-11-05T01:55:52.963Z,101552.44
2022-11-05T01:58:24.662Z,101551.81
2022-11-05T02:00:52.650Z,101557.41
2022-11-05T02:03:20.545Z,101549.34
2022-11-05T02:05:51.549Z,101544.38
2022-11-05T02:08:28.166Z,101541.69
2022-11-05T02:10:58.086Z,101540.03
2022-11-05T02:13:25.784Z,101535.69
2022-11-05T02:16:05.491Z,101538.38
2022-11-05T02:18:45.673Z,101532.38
2022-11-05T02:21:41.014Z,101537.75
2022-11-05T02:24:35.603Z,101542.31
2022-11-05T02:27:22.123Z,101537.97
2022-11-05T02:30:24.552Z,101548.13
2022-11-05T02:33:15.307Z,101535.53
2022-11-05T02:35:59.856Z,101539.66
2022-11-05T02:38:40.248Z,101533.44
2022-11-05T02:41:14.894Z,101529.09
2022-11-05T02:43:53.907Z,101530.34
2022-11-05T02:46:34.462Z,101526.81
2022-11-05T02:49:12.206Z,101530.78
2022-11-05T02:51:48.355Z,101533.47
2022-11-05T02:54:21.325Z,101529.94
2022-11-05T02:56:52.879Z,101534.50
2022-11-05T02:59:20.722Z,101530.16
2022-11-05T03:01:50.541Z,101530.97
2022-11-05T03:04:21.146Z,101533.88
2022-11-05T03:07:11.649Z,101526.81
2022-11-05T03:09:58.972Z,101529.72
2022-11-05T03:12:34.554Z,101531.59
2022-11-05T03:15:11.748Z,101528.91
2022-11-05T03:17:51.560Z,101525.59
2022-11-05T03:20:21.963Z,101528.28
2022-11-05T03:22:54.631Z,101534.72
2022-11-05T03:25:25.457Z,101535.13
2022-11-05T03:27:58.631Z,101534.09
2022-11-05T03:30:26.698Z,101526.44
2022-11-05T03:33:00.458Z,101530.78
2022-11-05T03:35:31.251Z,101531.00
2022-11-05T03:38:03.387Z,101543.63
2022-11-05T03:40:34.687Z,101543.63
2022-11-05T03:43:07.775Z,101541.38
2022-11-05T03:45:41.735Z,101545.91
2022-11-05T03:48:13.775Z,101542.19
2022-11-05T03:50:46.065Z,101538.06
2022-11-05T03:53:18.081Z,101548.00
2022-11-05T03:55:50.730Z,101535.78
2022-11-05T03:58:20.974Z,101543.25
2022-11-05T04:00:49.289Z,101538.91
2022-11-05T04:03:18.360Z,101537.25
2022-11-05T04:06:06.322Z,101548.00
2022-11-05T04:08:51.529Z,101547.41
2022-11-05T04:11:37.048Z,101544.91
2022-11-05T04:14:04.776Z,101549.25
2022-11-05T04:16:50.086Z,101553.00
2022-11-05T04:19:39.532Z,101552.38
2022-11-05T04:22:24.956Z,101552.38
2022-11-05T04:24:52.711Z,101560.66
2022-11-05T04:27:20.422Z,101560.03
2022-11-05T04:30:05.760Z,101566.25
2022-11-05T04:32:33.886Z,101566.47
2022-11-05T04:35:02.982Z,101563.78
2022-11-05T04:37:30.667Z,101560.25
2022-11-05T04:39:58.383Z,101552.38
2022-11-05T04:42:26.113Z,101553.63
2022-11-05T04:44:53.805Z,101555.50
2022-11-05T04:47:21.494Z,101568.97
2022-11-05T04:49:49.199Z,101566.47
2022-11-05T04:52:18.254Z,101571.66
2022-11-05T04:54:45.904Z,101585.09
2022-11-05T04:57:13.679Z,101571.25
2022-11-05T04:59:41.482Z,101578.28
2022-11-05T05:02:09.278Z,101582.84
2022-11-05T05:04:37.038Z,101588.41
2022-11-05T05:07:04.703Z,101578.47
2022-11-05T05:09:33.700Z,101582.00
2022-11-05T05:12:02.537Z,101584.91
2022-11-05T05:14:30.234Z,101582.41
2022-11-05T05:16:57.971Z,101589.47
2022-11-05T05:19:26.011Z,101586.78
2022-11-05T05:21:52.767Z,101590.69
2022-11-05T05:24:21.551Z,101591.13
2022-11-05T05:26:51.396Z,101594.63
2022-11-05T05:29:19.642Z,101593.81
2022-11-05T05:31:47.349Z,101597.53
2022-11-05T05:34:15.884Z,101594.22
2022-11-05T05:36:43.570Z,101592.56
2022-11-05T05:39:11.819Z,101591.53
2022-11-05T05:41:39.638Z,101593.59
2022-11-05T05:44:09.018Z,101600.03
2022-11-05T05:46:36.688Z,101611.00
2022-11-05T05:49:11.093Z,101609.53
2022-11-05T05:51:40.137Z,101599.59
2022-11-05T05:54:07.944Z,101602.50
2022-11-05T05:56:38.230Z,101604.38
2022-11-05T05:59:08.082Z,101607.47
2022-11-05T06:01:35.900Z,101601.06
2022-11-05T06:04:03.733Z,101611.00
2022-11-05T06:06:34.926Z,101608.31
2022-11-05T06:09:02.848Z,101606.84
2022-11-05T06:11:30.635Z,101614.91
2022-11-05T06:13:58.390Z,101605.41
2022-11-05T06:16:28.548Z,101613.25
2022-11-05T06:18:56.250Z,101614.31
2022-11-05T06:21:23.899Z,101619.88
2022-11-05T06:23:51.555Z,101615.53
2022-11-05T06:26:20.094Z,101614.09
2022-11-05T06:28:48.011Z,101623.19
2022-11-05T06:31:16.504Z,101616.78
2022-11-05T06:33:45.486Z,101631.25
2022-11-05T06:36:16.061Z,101629.41
2022-11-05T06:38:43.754Z,101618.00
2022-11-05T06:41:11.514Z,101628.16
2022-11-05T06:43:39.466Z,101630.00
2022-11-05T06:46:07.645Z,101634.56
2022-11-05T06:48:35.779Z,101633.53
2022-11-05T06:51:05.973Z,101628.56
2022-11-05T06:53:34.365Z,101634.97
2022-11-05T06:56:05.494Z,101632.09
2022-11-05T06:58:33.599Z,101635.81
2022-11-05T07:01:02.912Z,101634.78
2022-11-05T07:03:31.136Z,101637.47
2022-11-05T07:06:00.649Z,101639.53
2022-11-05T07:08:32.300Z,101643.25
2022-11-05T07:11:00.211Z,101638.69
2022-11-05T07:13:28.025Z,101647.19
2022-11-05T07:15:55.932Z,101649.03
2022-11-05T07:18:24.038Z,101639.72
2022-11-05T07:20:51.711Z,101654.63
2022-11-05T07:23:19.403Z,101659.38
2022-11-05T07:25:48.451Z,101658.75
2022-11-05T07:28:16.146Z,101656.88
2022-11-05T07:30:43.865Z,101664.97
2022-11-05T07:33:12.038Z,101663.09
2022-11-05T07:35:39.987Z,101660.41
2022-11-05T07:38:07.680Z,101665.16
2022-11-05T07:40:35.461Z,101673.22
2022-11-05T07:43:04.520Z,101672.41
2022-11-05T07:45:32.904Z,101680.47
2022-11-05T07:48:02.660Z,101677.34
2022-11-05T07:50:32.546Z,101690.38
2022-11-05T07:53:05.717Z,101685.22
2022-11-05T07:55:34.067Z,101685.63
2022-11-05T07:58:01.814Z,101684.16
2022-11-05T08:00:31.539Z,101679.63
2022-11-05T08:03:07.153Z,101681.91
2022-11-05T08:05:37.714Z,101687.28
2022-11-05T08:08:07.080Z,101678.81
2022-11-05T08:10:35.401Z,101687.94
2022-11-05T08:13:03.487Z,101685.09
2022-11-05T08:15:32.525Z,101681.78
2022-11-05T08:18:00.286Z,101679.50
2022-11-05T08:20:28.417Z,101670.19
2022-11-05T08:22:56.848Z,101679.31
2022-11-05T08:25:25.128Z,101679.09
2022-11-05T08:27:56.769Z,101677.03
2022-11-05T08:30:24.834Z,101674.53
2022-11-05T08:32:57.852Z,101672.25
2022-11-05T08:35:25.739Z,101669.38
2022-11-05T08:37:57.596Z,101682.41
2022-11-05T08:40:25.863Z,101683.03
2022-11-05T08:42:53.690Z,101685.09
2022-11-05T08:45:22.115Z,101681.78
2022-11-05T08:47:49.774Z,101683.84
2022-11-05T08:50:18.987Z,101679.50
2022-11-05T08:52:46.670Z,101683.00
2022-11-05T08:55:18.793Z,101685.28
2022-11-05T08:57:47.058Z,101684.25
2022-11-05T09:00:15.799Z,101683.41
2022-11-05T09:02:43.521Z,101683.41
2022-11-05T09:05:11.265Z,101687.97
2022-11-05T09:07:40.324Z,101688.81
2022-11-05T09:10:08.592Z,101693.16
2022-11-05T09:12:36.289Z,101688.81
2022-11-05T09:15:04.278Z,101685.91
2022-11-05T09:17:32.056Z,101696.66
2022-11-05T09:19:59.794Z,101688.41
2022-11-05T09:22:27.416Z,101693.16
2022-11-05T09:24:56.389Z,101696.25
2022-11-05T09:27:24.124Z,101697.06
2022-11-05T09:29:51.795Z,101685.28
2022-11-05T09:32:20.965Z,101695.41
2022-11-05T09:34:49.036Z,101690.88
2022-11-05T09:37:17.087Z,101691.69
2022-11-05T09:39:44.829Z,101691.06
2022-11-05T09:42:18.647Z,101697.06
2022-11-05T09:44:50.470Z,101700.59
2022-11-05T09:47:24.701Z,101702.25
2022-11-05T09:49:54.343Z,101703.91
2022-11-05T09:52:23.901Z,101712.38
2022-11-05T09:54:51.608Z,101708.66
2022-11-05T09:57:25.554Z,101718.41
2022-11-05T09:59:55.649Z,101719.84
2022-11-05T10:02:26.981Z,101717.78
2022-11-05T10:04:58.596Z,101714.88
2022-11-05T10:07:30.583Z,101719.22
2022-11-05T10:10:01.544Z,101718.00
2022-11-05T10:12:36.089Z,101716.75
2022-11-05T10:15:12.217Z,101726.06
2022-11-05T10:17:44.432Z,101733.13
2022-11-05T10:20:30.701Z,101731.03
2022-11-05T10:23:02.921Z,101737.25
2022-11-05T10:25:34.960Z,101747.59
2022-11-05T10:28:05.740Z,101746.56
2022-11-05T10:30:33.863Z,101737.47
2022-11-05T10:33:06.745Z,101732.28
2022-11-05T10:35:38.087Z,101741.81
2022-11-05T10:38:05.814Z,101747.19
2022-11-05T10:40:44.289Z,101739.75
2022-11-05T10:43:17.798Z,101743.28
2022-11-05T10:45:53.441Z,101749.91
2022-11-05T10:48:50.091Z,101735.63
2022-11-05T10:51:18.469Z,101745.34
2022-11-05T10:53:57.339Z,101735.19
2022-11-05T10:56:31.450Z,101737.69
2022-11-05T10:59:01.833Z,101735.81
2022-11-05T11:01:30.463Z,101734.78
2022-11-05T11:04:18.148Z,101728.59
2022-11-05T11:06:51.897Z,101734.59
2022-11-05T11:09:23.491Z,101736.44
2022-11-05T11:11:59.799Z,101734.59
2022-11-05T11:14:29.653Z,101730.03
2022-11-05T11:17:18.147Z,101725.47
2022-11-05T11:19:45.916Z,101730.66
2022-11-05T11:22:21.047Z,101726.94
2022-11-05T11:24:51.267Z,101724.03
2022-11-05T11:27:23.317Z,101729.00
2022-11-05T11:29:58.175Z,101722.38
2022-11-05T11:32:33.000Z,101714.50
2022-11-05T11:35:01.250Z,101712.22
2022-11-05T11:37:31.339Z,101713.06
2022-11-05T11:40:04.124Z,101710.97
2022-11-05T11:42:34.625Z,101716.38
2022-11-05T11:45:08.417Z,101709.31
2022-11-05T11:47:36.127Z,101707.88
2022-11-05T11:50:04.035Z,101713.88
2022-11-05T11:52:33.552Z,101705.59
2022-11-05T11:55:20.451Z,101711.41
2022-11-05T11:57:51.482Z,101714.53
2022-11-05T12:00:25.938Z,101708.09
2022-11-05T12:03:06.615Z,101703.53
2022-11-05T12:05:41.790Z,101707.06
2022-11-05T12:08:34.049Z,101697.75
2022-11-05T12:11:06.616Z,101694.63
2022-11-05T12:14:14.590Z,101698.97
2022-11-05T12:16:59.727Z,101698.78
2022-11-05T12:19:39.563Z,101697.53
2022-11-05T12:22:16.013Z,101701.88
2022-11-05T12:25:14.432Z,101698.97
2022-11-05T12:27:56.059Z,101700.00
2022-11-05T12:30:24.639Z,101695.84
2022-11-05T12:33:07.077Z,101700.19
2022-11-05T12:35:49.919Z,101693.78
2022-11-05T12:38:33.655Z,101685.69
2022-11-05T12:41:22.627Z,101673.06
2022-11-05T12:44:10.040Z,101672.00
2022-11-05T12:46:46.991Z,101679.88
2022-11-05T12:49:33.286Z,101674.69
2022-11-05T12:52:17.376Z,101657.28
2022-11-05T12:54:59.505Z,101657.22
2022-11-05T12:57:28.877Z,101659.28
2022-11-05T13:00:04.005Z,101658.00
2022-11-05T13:02:37.138Z,101656.56
2022-11-05T13:05:17.833Z,101656.34
2022-11-05T13:07:53.477Z,101648.88
2022-11-05T13:10:29.092Z,101648.03
2022-11-05T13:13:03.645Z,101638.28
2022-11-05T13:15:36.139Z,101648.03
2022-11-05T13:18:07.419Z,101642.22
2022-11-05T13:20:40.591Z,101634.66
2022-11-05T13:23:21.566Z,101629.09
2022-11-05T13:25:54.331Z,101634.31
2022-11-05T13:28:32.749Z,101626.97
2022-11-05T13:31:04.093Z,101621.84
2022-11-05T13:33:34.800Z,101623.00
2022-11-05T13:36:26.323Z,101612.50
2022-11-05T13:39:06.936Z,101612.47
2022-11-05T13:41:54.280Z,101608.34
2022-11-05T13:44:39.825Z,101603.38
2022-11-05T13:47:33.008Z,101606.53
2022-11-05T13:50:24.412Z,101595.59
2022-11-05T13:53:12.545Z,101606.28
2022-11-05T13:56:00.321Z,101602.31
2022-11-05T13:58:46.529Z,101609.63
2022-11-05T14:01:24.915Z,101604.66
2022-11-05T14:03:55.863Z,101598.00
2022-11-05T14:06:26.532Z,101599.97
2022-11-05T14:08:59.989Z,101606.72
2022-11-05T14:11:32.169Z,101599.06
2022-11-05T14:14:03.293Z,101594.75
2022-11-05T14:16:47.571Z,101593.84
2022-11-05T14:19:35.657Z,101610.88
2022-11-05T14:22:37.566Z,101605.53
2022-11-05T14:25:53.287Z,101611.59
2022-11-05T14:28:41.756Z,101606.25
2022-11-05T15:11:38.346Z,101594.97
2022-11-05T15:14:13.904Z,101588.78
2022-11-05T15:16:45.697Z,101593.16
2022-11-05T15:19:21.332Z,101608.91
2022-11-05T15:21:50.335Z,101589.03
2022-11-05T15:24:20.416Z,101598.31
2022-11-05T15:26:57.106Z,101595.84
2022-11-05T15:29:27.942Z,101600.63
2022-11-05T15:31:55.775Z,101589.22
2022-11-05T15:34:25.974Z,101592.38
2022-11-05T15:36:56.782Z,101596.13
2022-11-05T15:39:30.111Z,101594.25
2022-11-05T15:42:00.426Z,101598.81
2022-11-05T15:44:30.505Z,101593.41
2022-11-05T15:47:09.837Z,101603.38
2022-11-05T15:49:37.847Z,101597.97
2022-11-05T15:52:05.834Z,101598.19
2022-11-05T15:54:33.938Z,101588.47
2022-11-05T15:57:03.579Z,101593.25
2022-11-05T15:59:31.974Z,101594.28
2022-11-05T16:02:19.386Z,101596.38
2022-11-05T16:04:49.020Z,101599.91
2022-11-05T16:07:17.598Z,101591.59
2022-11-05T16:09:53.015Z,101589.94
2022-11-05T16:12:36.293Z,101588.50
2022-11-05T16:15:19.375Z,101581.88
2022-11-05T16:17:49.999Z,101590.38
2022-11-05T16:20:26.608Z,101586.25
2022-11-05T16:22:56.175Z,101584.38
2022-11-05T16:25:28.982Z,101580.84
2022-11-05T16:27:58.852Z,101571.09
2022-11-05T16:30:27.385Z,101574.84
2022-11-05T16:32:56.246Z,101572.16
2022-11-05T16:35:25.203Z,101571.31
2022-11-05T16:37:53.562Z,101575.66
2022-11-05T16:40:22.964Z,101575.88
2022-11-05T16:42:52.266Z,101573.19
2022-11-05T16:45:23.913Z,101575.06
2022-11-05T16:47:51.929Z,101568.22
2022-11-05T16:50:23.457Z,101573.19
2022-11-05T16:52:51.250Z,101577.75
2022-11-05T16:55:19.712Z,101570.72
2022-11-05T16:57:50.628Z,101580.06
2022-11-05T17:00:20.085Z,101573.63
2022-11-05T17:02:49.698Z,101566.56
2022-11-05T17:05:21.111Z,101573.63
2022-11-05T17:07:48.769Z,101574.66
2022-11-05T17:10:16.615Z,101574.66
2022-11-05T17:12:45.762Z,101579.25
2022-11-05T17:15:18.720Z,101575.50
2022-11-05T17:17:46.876Z,101587.31
2022-11-05T17:20:27.793Z,101585.47
2022-11-05T17:22:55.462Z,101577.38
2022-11-05T17:25:23.204Z,101580.06
2022-11-05T17:27:51.383Z,101581.72
2022-11-05T17:30:19.530Z,101579.84
2022-11-05T17:32:47.522Z,101575.50
2022-11-05T17:35:16.900Z,101564.72
2022-11-05T17:37:44.646Z,101566.34
2022-11-05T17:40:15.805Z,101573.63
2022-11-05T17:42:43.668Z,101563.06
2022-11-05T17:45:13.164Z,101567.63
2022-11-05T17:47:41.555Z,101576.09
2022-11-05T17:50:11.827Z,101582.53
2022-11-05T17:52:40.860Z,101588.31
2022-11-05T17:55:16.451Z,101576.28
2022-11-05T17:57:45.948Z,101573.59
2022-11-05T18:00:15.463Z,101587.28
2022-11-05T18:02:43.235Z,101589.16
2022-11-05T18:05:11.379Z,101593.72
2022-11-05T18:07:40.407Z,101596.63
2022-11-05T18:10:08.903Z,101600.16
2022-11-05T18:12:37.762Z,101605.56
2022-11-05T18:15:06.455Z,101610.13
2022-11-05T18:17:34.368Z,101606.16
2022-11-05T18:20:02.078Z,101613.22
2022-11-05T18:22:29.724Z,101618.38
2022-11-05T18:24:58.821Z,101614.88
2022-11-05T18:27:27.678Z,101606.94
2022-11-05T18:29:55.858Z,101608.38
2022-11-05T18:32:23.620Z,101608.00
2022-11-05T18:34:51.345Z,101600.78
2022-11-05T18:37:19.050Z,101601.81
2022-11-05T18:39:47.063Z,101602.03
2022-11-05T18:42:16.204Z,101593.34
2022-11-05T18:44:44.433Z,101597.91
2022-11-05T18:47:12.291Z,101597.72
2022-11-05T18:49:39.973Z,101608.91
2022-11-05T18:52:07.738Z,101607.03
2022-11-05T18:54:35.474Z,101613.84
2022-11-05T18:57:03.313Z,101609.91
2022-11-05T18:59:38.763Z,101608.03
2022-11-05T19:02:08.708Z,101612.59
2022-11-05T19:04:36.796Z,101609.69
2022-11-05T19:07:05.863Z,101600.78
2022-11-05T19:09:34.637Z,101603.47
2022-11-05T19:12:02.503Z,101593.72
2022-11-05T19:14:30.848Z,101595.16
2022-11-05T19:17:00.679Z,101592.69
2022-11-05T19:19:29.180Z,101588.94
2022-11-05T19:21:56.970Z,101583.72
2022-11-05T19:24:24.746Z,101580.75
2022-11-05T19:26:52.499Z,101581.25
2022-11-05T19:29:20.407Z,101579.88
2022-11-05T19:31:48.418Z,101578.22
2022-11-05T19:34:17.525Z,101561.94
2022-11-05T19:36:45.243Z,101567.72
2022-11-05T19:39:15.214Z,101561.28
2022-11-05T19:41:43.033Z,101565.41
2022-11-05T19:44:11.558Z,101577.03
2022-11-05T19:46:39.483Z,101570.44
2022-11-05T19:49:07.178Z,101563.22
2022-11-05T19:51:36.302Z,101564.31
2022-11-05T19:54:05.011Z,101562.25
2022-11-05T19:56:34.576Z,101559.63
2022-11-05T19:59:03.845Z,101558.41
2022-11-05T20:01:32.169Z,101548.28
2022-11-05T20:04:02.441Z,101544.38
2022-11-05T20:06:32.970Z,101540.44
2022-11-05T20:09:21.005Z,101518.50
2022-11-05T20:11:50.119Z,101514.34
2022-11-05T20:14:17.868Z,101512.72
2022-11-05T20:16:46.825Z,101524.88
2022-11-05T20:19:16.046Z,101513.69
2022-11-05T20:21:44.321Z,101529.50
2022-11-05T20:24:18.731Z,101530.97
2022-11-05T20:26:48.275Z,101532.84
2022-11-05T20:29:16.068Z,101536.59
2022-11-05T20:31:43.721Z,101535.16
2022-11-05T20:34:11.477Z,101534.78
2022-11-05T20:36:41.298Z,101526.06
2022-11-05T20:39:08.975Z,101528.78
2022-11-05T20:41:38.007Z,101524.44
2022-11-05T20:44:05.794Z,101520.28
2022-11-05T20:46:33.832Z,101524.03
2022-11-05T20:49:01.567Z,101527.78
2022-11-05T20:51:29.627Z,101528.00
2022-11-05T20:53:58.746Z,101534.44
2022-11-05T20:56:28.250Z,101526.56
2022-11-05T20:58:58.582Z,101524.91
2022-11-05T21:01:28.013Z,101539.44
2022-11-05T21:03:56.069Z,101545.88
2022-11-05T21:06:24.389Z,101544.22
2022-11-05T21:08:53.058Z,101540.47
2022-11-05T21:11:21.576Z,101550.66
2022-11-05T21:13:49.368Z,101538.22
2022-11-05T21:16:19.679Z,101545.28
2022-11-05T21:18:48.191Z,101551.72
2022-11-05T21:21:19.965Z,101548.78
2022-11-05T21:23:47.719Z,101564.97
2022-11-05T21:26:16.739Z,101554.41
2022-11-05T21:28:44.516Z,101567.06
2022-11-05T21:31:12.307Z,101565.41
2022-11-05T21:33:41.414Z,101557.31
2022-11-05T21:36:11.404Z,101561.88
2022-11-05T21:38:39.612Z,101557.53
2022-11-05T21:41:08.484Z,101557.53
2022-11-05T21:43:36.556Z,101546.97
2022-11-05T21:46:05.541Z,101555.06
2022-11-05T21:48:33.978Z,101543.66
2022-11-05T21:51:20.409Z,101543.66
2022-11-05T21:54:05.802Z,101530.19
2022-11-05T21:56:51.656Z,101531.22
2022-11-05T21:59:39.064Z,101523.13
2022-11-05T22:02:07.574Z,101515.25
2022-11-05T22:04:37.474Z,101521.69
2022-11-05T22:07:08.155Z,101513.63
2022-11-05T22:09:36.334Z,101502.81
2022-11-05T22:12:05.537Z,101501.19
2022-11-05T22:14:33.323Z,101501.19
2022-11-05T22:17:01.459Z,101502.22
2022-11-05T22:19:29.369Z,101486.91
2022-11-05T22:21:57.055Z,101497.03
2022-11-05T22:24:27.993Z,101488.34
2022-11-05T22:26:55.680Z,101487.31
2022-11-05T22:29:23.373Z,101490.00
2022-11-05T22:31:50.987Z,101487.53
2022-11-05T22:34:18.885Z,101484.00
2022-11-05T22:36:46.643Z,101482.13
2022-11-05T22:39:14.542Z,101482.56
2022-11-05T22:41:44.191Z,101487.53
2022-11-05T22:44:14.081Z,101489.41
2022-11-05T22:46:42.122Z,101486.69
2022-11-05T22:49:10.131Z,101485.06
2022-11-05T22:51:39.672Z,101486.09
2022-11-05T22:54:08.233Z,101485.25
2022-11-05T22:56:38.365Z,101487.13
2022-11-05T22:59:09.063Z,101479.88
2022-11-05T23:01:36.893Z,101477.63
2022-11-05T23:04:04.788Z,101479.06
2022-11-05T23:06:51.673Z,101479.28
2022-11-05T23:09:39.131Z,101472.00
2022-11-05T23:12:09.792Z,101463.31
2022-11-05T23:14:38.836Z,101463.09
2022-11-05T23:17:24.016Z,101464.97
2022-11-05T23:20:09.468Z,101462.50
2022-11-05T23:22:55.045Z,101454.41
2022-11-05T23:25:24.585Z,101447.13
2022-11-05T23:27:54.385Z,101450.06
2022-11-05T23:30:25.660Z,101446.31
2022-11-05T23:32:53.128Z,101446.31
2022-11-05T23:35:41.674Z,101436.56
2022-11-05T23:38:27.454Z,101441.13
2022-11-05T23:41:12.753Z,101440.31
2022-11-05T23:43:58.227Z,101437.41
2022-11-05T23:46:44.828Z,101426.00
2022-11-05T23:49:12.494Z,101427.66
2022-11-05T23:51:40.164Z,101414.19
2022-11-05T23:54:07.870Z,101419.59
2022-11-05T23:56:35.646Z,101434.09
2022-11-05T23:59:04.737Z,101422.72
